Sumifukumaru No.5 — JD3058 — position and weather

sailwx.info

Track history (hours):
 
Tides and Currents Weather Stations Pressure Air Temp Water Temp Dewpoint Dewpoint Depression Visibility Wind Speed Wind Dir Waves Ship Positions

Sumifukumaru No.5

Last reported at 2015-Jul-05 05:33 UTC. Time now 2015-Jul-05 09:27 UTC.
Position N 35°28' E 140°43'.

Length 75 m; draft 4.4 m.

Type: Cargo ship. MMSI: 431001371.

Date/timePositionNaut miles runAvg speedWind from/ knotsBaromVisibWave heightAir tempDewpointWater temp
2015-Jul-05 05:33N 35°28' E 140°43'1211.3
2015-Jul-05 04:28N 35°18' E 140°34'2311.6
2015-Jul-05 02:28N 35°01' E 140°14'2312.2
2015-Jul-05 00:33N 34°51' E 139°49'241 9.6
2015-Jul-03 23:23N 34°04' E 135°02'910.7
2015-Jul-03 22:33N 34°13' E 135°02'1110.3
2015-Jul-03 21:31N 34°23' E 135°07'1111.4
2015-Jul-03 20:34N 34°30' E 135°16'6 0.7
2015-Jul-03 12:19N 34°34' E 135°22'0 0.0
2015-Jul-03 03:24N 34°34' E 135°22'0 0.0
2015-Jul-03 02:30N 34°34' E 135°22'0 0.0
2015-Jul-03 01:30N 34°34' E 135°22'0 0.0
2015-Jul-03 00:25N 34°34' E 135°22'0 0.0
2015-Jul-02 21:31N 34°34' E 135°22'0 0.0
2015-Jul-02 19:30N 34°34' E 135°22'0 0.0
2015-Jul-02 18:24N 34°34' E 135°22'0 0.0
2015-Jul-02 13:30N 34°34' E 135°22'3 0.2
2015-Jul-01 21:03N 34°34' E 135°26'0 0.1
2015-Jul-01 20:30N 34°33' E 135°26'1 0.8
2015-Jul-01 19:30N 34°33' E 135°25'0 0.0
2015-Jul-01 18:18N 34°33' E 135°25'0 0.0
2015-Jul-01 17:24N 34°33' E 135°25'6 6.5
2015-Jul-01 16:33N 34°33' E 135°19'1111.1
2015-Jul-01 15:33N 34°34' E 135°05'  
2015-Jun-28 15:33N 35°03' E 139°35'1211.6
2015-Jun-28 14:33N 35°11' E 139°45'1010.1
2015-Jun-28 13:33N 35°21' E 139°43'6 6.1
2015-Jun-28 12:33N 35°22' E 139°50'1 0.5
2015-Jun-28 10:29N 35°22' E 139°51'0 0.0
2015-Jun-28 09:29N 35°22' E 139°51'0 0.0
2015-Jun-28 08:32N 35°22' E 139°51'0 0.0
2015-Jun-28 07:32N 35°22' E 139°51'0 0.0
2015-Jun-28 06:32N 35°22' E 139°51'0 0.0
2015-Jun-28 05:29N 35°22' E 139°51'0 0.0
2015-Jun-28 04:32N 35°22' E 139°51'0 0.0
2015-Jun-28 03:32N 35°22' E 139°51'0 0.4
2015-Jun-28 02:33N 35°22' E 139°51'7 7.4
2015-Jun-28 01:33N 35°15' E 139°47'1211.7
2015-Jun-28 00:30N 35°03' E 139°41'5912.0
2015-Jun-27 19:33N 34°34' E 138°38'  
Track history (hours):
 
Tides and Currents Weather Stations Pressure Air Temp Water Temp Dewpoint Dewpoint Depression Visibility Wind Speed Wind Dir Waves Ship Positions

Sumifukumaru No.5

Last reported at 2015-Jul-05 05:33 UTC. Time now 2015-Jul-05 09:27 UTC.
Position N 35°28' E 140°43'.

Length 75 m; draft 4.4 m.

Type: Cargo ship. MMSI: 431001371.

Date/timePositionNaut miles runAvg speedWind from/ knotsBaromVisibWave heightAir tempDewpointWater temp
2015-Jul-05 05:33N 35°28' E 140°43'1211.3
2015-Jul-05 04:28N 35°18' E 140°34'2311.6
2015-Jul-05 02:28N 35°01' E 140°14'2312.2
2015-Jul-05 00:33N 34°51' E 139°49'241 9.6
2015-Jul-03 23:23N 34°04' E 135°02'910.7
2015-Jul-03 22:33N 34°13' E 135°02'1110.3
2015-Jul-03 21:31N 34°23' E 135°07'1111.4
2015-Jul-03 20:34N 34°30' E 135°16'6 0.7
2015-Jul-03 12:19N 34°34' E 135°22'0 0.0
2015-Jul-03 03:24N 34°34' E 135°22'0 0.0
2015-Jul-03 02:30N 34°34' E 135°22'0 0.0
2015-Jul-03 01:30N 34°34' E 135°22'0 0.0
2015-Jul-03 00:25N 34°34' E 135°22'0 0.0
2015-Jul-02 21:31N 34°34' E 135°22'0 0.0
2015-Jul-02 19:30N 34°34' E 135°22'0 0.0
2015-Jul-02 18:24N 34°34' E 135°22'0 0.0
2015-Jul-02 13:30N 34°34' E 135°22'3 0.2
2015-Jul-01 21:03N 34°34' E 135°26'0 0.1
2015-Jul-01 20:30N 34°33' E 135°26'1 0.8
2015-Jul-01 19:30N 34°33' E 135°25'0 0.0
2015-Jul-01 18:18N 34°33' E 135°25'0 0.0
2015-Jul-01 17:24N 34°33' E 135°25'6 6.5
2015-Jul-01 16:33N 34°33' E 135°19'1111.1
2015-Jul-01 15:33N 34°34' E 135°05'  
2015-Jun-28 15:33N 35°03' E 139°35'1211.6
2015-Jun-28 14:33N 35°11' E 139°45'1010.1
2015-Jun-28 13:33N 35°21' E 139°43'6 6.1
2015-Jun-28 12:33N 35°22' E 139°50'1 0.5
2015-Jun-28 10:29N 35°22' E 139°51'0 0.0
2015-Jun-28 09:29N 35°22' E 139°51'0 0.0
2015-Jun-28 08:32N 35°22' E 139°51'0 0.0
2015-Jun-28 07:32N 35°22' E 139°51'0 0.0
2015-Jun-28 06:32N 35°22' E 139°51'0 0.0
2015-Jun-28 05:29N 35°22' E 139°51'0 0.0
2015-Jun-28 04:32N 35°22' E 139°51'0 0.0
2015-Jun-28 03:32N 35°22' E 139°51'0 0.4
2015-Jun-28 02:33N 35°22' E 139°51'7 7.4
2015-Jun-28 01:33N 35°15' E 139°47'1211.7
2015-Jun-28 00:30N 35°03' E 139°41'5912.0
2015-Jun-27 19:33N 34°34' E 138°38'  

Dump ship's entire track history